sensor_id;sensor_type;location;lat;lon;timestamp;P1;durP1;ratioP1;P2;durP2;ratioP2
67861;SDS011;54665;51.462;6.698;2023-03-23T00:01:03;4.57;;;1.98;;
67861;SDS011;54665;51.462;6.698;2023-03-23T00:03:29;4.45;;;2.10;;
67861;SDS011;54665;51.462;6.698;2023-03-23T00:05:59;4.40;;;2.10;;
67861;SDS011;54665;51.462;6.698;2023-03-23T00:08:33;5.18;;;2.20;;
67861;SDS011;54665;51.462;6.698;2023-03-23T00:11:10;4.20;;;2.13;;
67861;SDS011;54665;51.462;6.698;2023-03-23T00:13:40;5.60;;;2.08;;
67861;SDS011;54665;51.462;6.698;2023-03-23T00:16:07;4.47;;;2.08;;
67861;SDS011;54665;51.462;6.698;2023-03-23T00:18:42;4.40;;;2.10;;
67861;SDS011;54665;51.462;6.698;2023-03-23T00:21:12;4.55;;;2.10;;
67861;SDS011;54665;51.462;6.698;2023-03-23T00:23:37;5.53;;;2.20;;
67861;SDS011;54665;51.462;6.698;2023-03-23T00:26:04;4.68;;;2.30;;
67861;SDS011;54665;51.462;6.698;2023-03-23T00:28:30;4.63;;;1.87;;
67861;SDS011;54665;51.462;6.698;2023-03-23T00:30:57;5.10;;;2.50;;
67861;SDS011;54665;51.462;6.698;2023-03-23T00:33:24;3.53;;;2.05;;
67861;SDS011;54665;51.462;6.698;2023-03-23T00:35:51;3.93;;;1.90;;
67861;SDS011;54665;51.462;6.698;2023-03-23T00:38:18;4.65;;;2.17;;
67861;SDS011;54665;51.462;6.698;2023-03-23T00:40:45;3.80;;;2.00;;
67861;SDS011;54665;51.462;6.698;2023-03-23T00:43:12;4.82;;;2.25;;
67861;SDS011;54665;51.462;6.698;2023-03-23T00:45:41;3.97;;;1.92;;
67861;SDS011;54665;51.462;6.698;2023-03-23T00:48:10;4.37;;;2.10;;
67861;SDS011;54665;51.462;6.698;2023-03-23T00:50:38;5.10;;;2.30;;
67861;SDS011;54665;51.462;6.698;2023-03-23T00:53:04;5.90;;;2.72;;
67861;SDS011;54665;51.462;6.698;2023-03-23T00:55:29;7.32;;;3.17;;
67861;SDS011;54665;51.462;6.698;2023-03-23T00:57:55;5.67;;;2.80;;
67861;SDS011;54665;51.462;6.698;2023-03-23T01:00:22;7.82;;;2.70;;
67861;SDS011;54665;51.462;6.698;2023-03-23T01:02:48;7.30;;;2.50;;
67861;SDS011;54665;51.462;6.698;2023-03-23T01:05:16;5.43;;;2.47;;
67861;SDS011;54665;51.462;6.698;2023-03-23T01:07:43;5.85;;;2.60;;
67861;SDS011;54665;51.462;6.698;2023-03-23T01:10:09;4.90;;;2.40;;
67861;SDS011;54665;51.462;6.698;2023-03-23T01:12:38;6.20;;;2.60;;
67861;SDS011;54665;51.462;6.698;2023-03-23T01:15:04;5.88;;;2.58;;
67861;SDS011;54665;51.462;6.698;2023-03-23T01:17:31;6.60;;;2.67;;
67861;SDS011;54665;51.462;6.698;2023-03-23T01:19:56;6.13;;;2.47;;
67861;SDS011;54665;51.462;6.698;2023-03-23T01:22:22;5.57;;;2.70;;
67861;SDS011;54665;51.462;6.698;2023-03-23T01:24:47;4.97;;;2.50;;
67861;SDS011;54665;51.462;6.698;2023-03-23T01:27:12;5.87;;;2.57;;
67861;SDS011;54665;51.462;6.698;2023-03-23T01:29:38;7.85;;;3.08;;
67861;SDS011;54665;51.462;6.698;2023-03-23T01:32:03;7.10;;;2.63;;
67861;SDS011;54665;51.462;6.698;2023-03-23T01:34:28;7.07;;;3.10;;
67861;SDS011;54665;51.462;6.698;2023-03-23T01:36:54;4.63;;;2.43;;
67861;SDS011;54665;51.462;6.698;2023-03-23T01:39:20;5.43;;;2.40;;
67861;SDS011;54665;51.462;6.698;2023-03-23T01:41:45;6.47;;;2.70;;
67861;SDS011;54665;51.462;6.698;2023-03-23T01:46:48;6.10;;;2.78;;
67861;SDS011;54665;51.462;6.698;2023-03-23T01:49:19;5.50;;;2.40;;
67861;SDS011;54665;51.462;6.698;2023-03-23T01:52:12;7.03;;;2.70;;
67861;SDS011;54665;51.462;6.698;2023-03-23T01:54:42;4.95;;;2.47;;
67861;SDS011;54665;51.462;6.698;2023-03-23T01:57:11;8.13;;;2.87;;
67861;SDS011;54665;51.462;6.698;2023-03-23T01:59:41;5.35;;;2.80;;
67861;SDS011;54665;51.462;6.698;2023-03-23T02:02:22;7.03;;;2.85;;
67861;SDS011;54665;51.462;6.698;2023-03-23T02:04:49;4.97;;;2.63;;
67861;SDS011;54665;51.462;6.698;2023-03-23T02:07:15;8.63;;;3.13;;
67861;SDS011;54665;51.462;6.698;2023-03-23T02:09:43;4.75;;;2.42;;
67861;SDS011;54665;51.462;6.698;2023-03-23T02:12:08;5.90;;;2.87;;
67861;SDS011;54665;51.462;6.698;2023-03-23T02:14:36;5.88;;;2.75;;
67861;SDS011;54665;51.462;6.698;2023-03-23T02:17:09;4.97;;;2.93;;
67861;SDS011;54665;51.462;6.698;2023-03-23T02:28:43;8.15;;;3.40;;
67861;SDS011;54665;51.462;6.698;2023-03-23T02:31:16;7.70;;;3.10;;
67861;SDS011;54665;51.462;6.698;2023-03-23T02:36:54;5.57;;;2.85;;
67861;SDS011;54665;51.462;6.698;2023-03-23T02:40:02;7.13;;;2.65;;
67861;SDS011;54665;51.462;6.698;2023-03-23T02:42:38;6.45;;;2.72;;
67861;SDS011;54665;51.462;6.698;2023-03-23T02:45:07;4.67;;;2.53;;
67861;SDS011;54665;51.462;6.698;2023-03-23T02:47:35;4.50;;;2.50;;
67861;SDS011;54665;51.462;6.698;2023-03-23T02:50:03;5.20;;;2.75;;
67861;SDS011;54665;51.462;6.698;2023-03-23T02:52:32;7.10;;;2.83;;
67861;SDS011;54665;51.462;6.698;2023-03-23T02:55:01;5.00;;;2.50;;
67861;SDS011;54665;51.462;6.698;2023-03-23T02:57:28;6.63;;;2.60;;
67861;SDS011;54665;51.462;6.698;2023-03-23T02:59:56;7.38;;;2.95;;
67861;SDS011;54665;51.462;6.698;2023-03-23T03:04:54;6.05;;;2.47;;
67861;SDS011;54665;51.462;6.698;2023-03-23T03:07:30;9.82;;;2.70;;
67861;SDS011;54665;51.462;6.698;2023-03-23T03:10:14;7.10;;;2.90;;
67861;SDS011;54665;51.462;6.698;2023-03-23T03:15:27;6.88;;;2.58;;
67861;SDS011;54665;51.462;6.698;2023-03-23T03:21:04;5.55;;;2.30;;
67861;SDS011;54665;51.462;6.698;2023-03-23T03:23:33;6.20;;;2.60;;
67861;SDS011;54665;51.462;6.698;2023-03-23T03:26:02;5.50;;;2.67;;
67861;SDS011;54665;51.462;6.698;2023-03-23T03:28:46;5.63;;;2.70;;
67861;SDS011;54665;51.462;6.698;2023-03-23T03:31:15;4.68;;;2.47;;
67861;SDS011;54665;51.462;6.698;2023-03-23T03:33:44;5.03;;;2.40;;
67861;SDS011;54665;51.462;6.698;2023-03-23T03:36:14;5.40;;;2.63;;
67861;SDS011;54665;51.462;6.698;2023-03-23T03:38:44;5.07;;;2.60;;
67861;SDS011;54665;51.462;6.698;2023-03-23T03:41:12;4.32;;;2.25;;
67861;SDS011;54665;51.462;6.698;2023-03-23T03:43:38;4.63;;;2.35;;
67861;SDS011;54665;51.462;6.698;2023-03-23T03:46:03;8.03;;;2.40;;
67861;SDS011;54665;51.462;6.698;2023-03-23T03:48:29;4.83;;;2.33;;
67861;SDS011;54665;51.462;6.698;2023-03-23T03:50:54;5.13;;;2.70;;
67861;SDS011;54665;51.462;6.698;2023-03-23T03:53:24;5.73;;;2.67;;
67861;SDS011;54665;51.462;6.698;2023-03-23T03:55:50;6.07;;;2.78;;
67861;SDS011;54665;51.462;6.698;2023-03-23T03:58:16;6.95;;;2.53;;
67861;SDS011;54665;51.462;6.698;2023-03-23T04:01:00;5.40;;;2.45;;
67861;SDS011;54665;51.462;6.698;2023-03-23T04:03:30;6.28;;;2.70;;
67861;SDS011;54665;51.462;6.698;2023-03-23T04:06:11;5.17;;;2.73;;
67861;SDS011;54665;51.462;6.698;2023-03-23T04:08:39;7.32;;;2.78;;
67861;SDS011;54665;51.462;6.698;2023-03-23T04:11:10;5.20;;;2.42;;
67861;SDS011;54665;51.462;6.698;2023-03-23T04:13:37;5.72;;;2.50;;
67861;SDS011;54665;51.462;6.698;2023-03-23T04:16:13;4.03;;;2.15;;
67861;SDS011;54665;51.462;6.698;2023-03-23T04:18:39;6.13;;;2.20;;
67861;SDS011;54665;51.462;6.698;2023-03-23T04:21:05;4.70;;;2.30;;
67861;SDS011;54665;51.462;6.698;2023-03-23T04:23:33;4.47;;;1.92;;
67861;SDS011;54665;51.462;6.698;2023-03-23T04:26:02;4.10;;;2.03;;
67861;SDS011;54665;51.462;6.698;2023-03-23T04:28:34;3.60;;;1.98;;
67861;SDS011;54665;51.462;6.698;2023-03-23T04:31:32;3.50;;;1.83;;
67861;SDS011;54665;51.462;6.698;2023-03-23T04:34:08;3.23;;;1.80;;
67861;SDS011;54665;51.462;6.698;2023-03-23T04:36:40;4.32;;;1.80;;
67861;SDS011;54665;51.462;6.698;2023-03-23T04:39:13;3.92;;;1.90;;
67861;SDS011;54665;51.462;6.698;2023-03-23T04:41:41;3.10;;;1.67;;
67861;SDS011;54665;51.462;6.698;2023-03-23T04:44:16;3.75;;;2.10;;
67861;SDS011;54665;51.462;6.698;2023-03-23T04:46:46;4.97;;;1.90;;
67861;SDS011;54665;51.462;6.698;2023-03-23T04:49:15;5.88;;;1.92;;
67861;SDS011;54665;51.462;6.698;2023-03-23T04:51:46;4.13;;;1.98;;
67861;SDS011;54665;51.462;6.698;2023-03-23T04:54:37;4.35;;;1.90;;
67861;SDS011;54665;51.462;6.698;2023-03-23T04:57:03;6.25;;;1.80;;
67861;SDS011;54665;51.462;6.698;2023-03-23T04:59:30;4.20;;;2.20;;
67861;SDS011;54665;51.462;6.698;2023-03-23T05:02:19;3.88;;;2.08;;
67861;SDS011;54665;51.462;6.698;2023-03-23T05:04:46;4.60;;;2.03;;
67861;SDS011;54665;51.462;6.698;2023-03-23T05:07:19;3.35;;;2.00;;
67861;SDS011;54665;51.462;6.698;2023-03-23T05:09:47;3.20;;;1.58;;
67861;SDS011;54665;51.462;6.698;2023-03-23T05:12:14;4.13;;;2.30;;
67861;SDS011;54665;51.462;6.698;2023-03-23T05:15:03;4.38;;;2.03;;
67861;SDS011;54665;51.462;6.698;2023-03-23T05:17:30;3.90;;;1.80;;
67861;SDS011;54665;51.462;6.698;2023-03-23T05:19:59;4.88;;;2.00;;
67861;SDS011;54665;51.462;6.698;2023-03-23T05:22:34;4.40;;;1.95;;
67861;SDS011;54665;51.462;6.698;2023-03-23T05:25:02;4.73;;;2.13;;
67861;SDS011;54665;51.462;6.698;2023-03-23T05:27:31;4.45;;;1.90;;
67861;SDS011;54665;51.462;6.698;2023-03-23T05:30:01;3.17;;;1.85;;
67861;SDS011;54665;51.462;6.698;2023-03-23T05:32:29;3.78;;;2.03;;
67861;SDS011;54665;51.462;6.698;2023-03-23T05:35:01;4.65;;;2.15;;
67861;SDS011;54665;51.462;6.698;2023-03-23T05:37:30;3.97;;;2.00;;
67861;SDS011;54665;51.462;6.698;2023-03-23T05:40:05;3.28;;;1.73;;
67861;SDS011;54665;51.462;6.698;2023-03-23T05:42:40;3.38;;;1.90;;
67861;SDS011;54665;51.462;6.698;2023-03-23T05:45:17;4.10;;;2.10;;
67861;SDS011;54665;51.462;6.698;2023-03-23T05:47:44;3.80;;;1.70;;
67861;SDS011;54665;51.462;6.698;2023-03-23T05:50:15;3.93;;;1.87;;
67861;SDS011;54665;51.462;6.698;2023-03-23T05:52:41;5.28;;;1.92;;
67861;SDS011;54665;51.462;6.698;2023-03-23T05:55:10;4.80;;;2.17;;
67861;SDS011;54665;51.462;6.698;2023-03-23T05:57:38;4.50;;;1.90;;
67861;SDS011;54665;51.462;6.698;2023-03-23T06:00:20;5.13;;;2.13;;
67861;SDS011;54665;51.462;6.698;2023-03-23T06:02:54;3.73;;;1.90;;
67861;SDS011;54665;51.462;6.698;2023-03-23T06:05:27;3.83;;;1.92;;
67861;SDS011;54665;51.462;6.698;2023-03-23T06:07:54;4.15;;;2.08;;
67861;SDS011;54665;51.462;6.698;2023-03-23T06:10:20;5.05;;;1.95;;
67861;SDS011;54665;51.462;6.698;2023-03-23T06:12:53;4.45;;;1.90;;
67861;SDS011;54665;51.462;6.698;2023-03-23T06:15:38;5.70;;;1.97;;
67861;SDS011;54665;51.462;6.698;2023-03-23T06:18:15;6.78;;;2.00;;
67861;SDS011;54665;51.462;6.698;2023-03-23T06:20:56;4.22;;;1.77;;
67861;SDS011;54665;51.462;6.698;2023-03-23T06:23:38;4.15;;;1.80;;
67861;SDS011;54665;51.462;6.698;2023-03-23T06:26:05;5.37;;;2.00;;
67861;SDS011;54665;51.462;6.698;2023-03-23T06:28:33;4.30;;;2.10;;
67861;SDS011;54665;51.462;6.698;2023-03-23T06:31:03;5.18;;;2.10;;
67861;SDS011;54665;51.462;6.698;2023-03-23T06:33:32;4.53;;;2.00;;
67861;SDS011;54665;51.462;6.698;2023-03-23T06:36:27;4.70;;;2.00;;
67861;SDS011;54665;51.462;6.698;2023-03-23T06:39:08;5.55;;;2.03;;
67861;SDS011;54665;51.462;6.698;2023-03-23T06:41:56;4.07;;;1.90;;
67861;SDS011;54665;51.462;6.698;2023-03-23T06:44:22;5.57;;;2.22;;
67861;SDS011;54665;51.462;6.698;2023-03-23T06:46:47;4.40;;;1.73;;
67861;SDS011;54665;51.462;6.698;2023-03-23T06:49:22;6.93;;;1.95;;
67861;SDS011;54665;51.462;6.698;2023-03-23T06:52:08;5.38;;;1.80;;
67861;SDS011;54665;51.462;6.698;2023-03-23T06:54:33;3.53;;;1.47;;
67861;SDS011;54665;51.462;6.698;2023-03-23T06:57:01;4.70;;;1.90;;
67861;SDS011;54665;51.462;6.698;2023-03-23T06:59:26;3.90;;;1.40;;
67861;SDS011;54665;51.462;6.698;2023-03-23T07:01:52;5.60;;;1.80;;
67861;SDS011;54665;51.462;6.698;2023-03-23T07:04:18;6.83;;;1.80;;
67861;SDS011;54665;51.462;6.698;2023-03-23T07:06:59;5.82;;;1.92;;
67861;SDS011;54665;51.462;6.698;2023-03-23T07:09:25;5.55;;;1.85;;
67861;SDS011;54665;51.462;6.698;2023-03-23T07:11:51;5.17;;;1.50;;
67861;SDS011;54665;51.462;6.698;2023-03-23T07:14:28;4.00;;;1.50;;
67861;SDS011;54665;51.462;6.698;2023-03-23T07:16:54;5.95;;;1.63;;
67861;SDS011;54665;51.462;6.698;2023-03-23T07:19:21;3.47;;;1.50;;
67861;SDS011;54665;51.462;6.698;2023-03-23T07:21:46;4.73;;;1.77;;
67861;SDS011;54665;51.462;6.698;2023-03-23T07:24:12;3.03;;;1.40;;
67861;SDS011;54665;51.462;6.698;2023-03-23T07:26:54;3.70;;;1.40;;
67861;SDS011;54665;51.462;6.698;2023-03-23T07:29:19;3.90;;;1.60;;
67861;SDS011;54665;51.462;6.698;2023-03-23T07:31:49;4.28;;;1.60;;
67861;SDS011;54665;51.462;6.698;2023-03-23T07:34:16;5.65;;;1.70;;
67861;SDS011;54665;51.462;6.698;2023-03-23T07:36:52;5.07;;;1.53;;
67861;SDS011;54665;51.462;6.698;2023-03-23T07:39:17;3.30;;;1.55;;
67861;SDS011;54665;51.462;6.698;2023-03-23T07:41:44;4.05;;;1.40;;
67861;SDS011;54665;51.462;6.698;2023-03-23T07:44:18;3.38;;;1.42;;
67861;SDS011;54665;51.462;6.698;2023-03-23T07:46:43;4.50;;;1.70;;
67861;SDS011;54665;51.462;6.698;2023-03-23T07:49:12;4.00;;;1.80;;
67861;SDS011;54665;51.462;6.698;2023-03-23T07:51:44;3.50;;;1.50;;
67861;SDS011;54665;51.462;6.698;2023-03-23T07:54:12;5.05;;;1.77;;
67861;SDS011;54665;51.462;6.698;2023-03-23T07:57:03;2.60;;;1.20;;
67861;SDS011;54665;51.462;6.698;2023-03-23T07:59:33;2.67;;;1.02;;
67861;SDS011;54665;51.462;6.698;2023-03-23T08:01:59;3.70;;;1.20;;
67861;SDS011;54665;51.462;6.698;2023-03-23T08:04:47;3.33;;;1.30;;
67861;SDS011;54665;51.462;6.698;2023-03-23T08:07:31;2.83;;;1.20;;
67861;SDS011;54665;51.462;6.698;2023-03-23T08:10:02;3.13;;;1.40;;
67861;SDS011;54665;51.462;6.698;2023-03-23T08:12:31;3.17;;;1.20;;
67861;SDS011;54665;51.462;6.698;2023-03-23T08:15:19;4.15;;;1.25;;
67861;SDS011;54665;51.462;6.698;2023-03-23T08:18:05;3.90;;;1.30;;
67861;SDS011;54665;51.462;6.698;2023-03-23T08:20:49;3.05;;;1.00;;
67861;SDS011;54665;51.462;6.698;2023-03-23T08:23:35;4.68;;;1.10;;
67861;SDS011;54665;51.462;6.698;2023-03-23T08:26:40;2.33;;;1.13;;
67861;SDS011;54665;51.462;6.698;2023-03-23T08:29:22;3.55;;;1.25;;
67861;SDS011;54665;51.462;6.698;2023-03-23T08:32:08;4.90;;;1.27;;
67861;SDS011;54665;51.462;6.698;2023-03-23T08:34:44;5.60;;;1.33;;
67861;SDS011;54665;51.462;6.698;2023-03-23T08:37:30;3.92;;;1.05;;
67861;SDS011;54665;51.462;6.698;2023-03-23T08:40:23;3.15;;;1.10;;
67861;SDS011;54665;51.462;6.698;2023-03-23T08:43:06;5.38;;;0.93;;
67861;SDS011;54665;51.462;6.698;2023-03-23T08:46:00;3.90;;;1.17;;
67861;SDS011;54665;51.462;6.698;2023-03-23T08:48:42;4.15;;;1.00;;
67861;SDS011;54665;51.462;6.698;2023-03-23T08:51:23;4.38;;;1.63;;
67861;SDS011;54665;51.462;6.698;2023-03-23T08:54:09;3.78;;;1.20;;
67861;SDS011;54665;51.462;6.698;2023-03-23T08:56:48;5.93;;;1.58;;
67861;SDS011;54665;51.462;6.698;2023-03-23T08:59:29;4.73;;;1.10;;
67861;SDS011;54665;51.462;6.698;2023-03-23T09:02:15;5.00;;;1.25;;
67861;SDS011;54665;51.462;6.698;2023-03-23T09:04:48;4.32;;;1.10;;
67861;SDS011;54665;51.462;6.698;2023-03-23T09:07:48;4.75;;;1.00;;
67861;SDS011;54665;51.462;6.698;2023-03-23T09:10:15;4.97;;;1.10;;
67861;SDS011;54665;51.462;6.698;2023-03-23T09:12:42;3.77;;;1.20;;
67861;SDS011;54665;51.462;6.698;2023-03-23T09:15:08;3.42;;;1.05;;
67861;SDS011;54665;51.462;6.698;2023-03-23T09:17:38;3.65;;;1.20;;
67861;SDS011;54665;51.462;6.698;2023-03-23T09:20:08;5.38;;;1.25;;
67861;SDS011;54665;51.462;6.698;2023-03-23T09:22:39;6.13;;;1.10;;
67861;SDS011;54665;51.462;6.698;2023-03-23T09:25:06;6.20;;;1.00;;
67861;SDS011;54665;51.462;6.698;2023-03-23T09:27:33;5.88;;;1.13;;
67861;SDS011;54665;51.462;6.698;2023-03-23T09:30:01;5.07;;;1.00;;
67861;SDS011;54665;51.462;6.698;2023-03-23T09:32:32;4.30;;;0.60;;
67861;SDS011;54665;51.462;6.698;2023-03-23T09:35:00;3.25;;;0.65;;
67861;SDS011;54665;51.462;6.698;2023-03-23T09:37:27;7.33;;;0.80;;
67861;SDS011;54665;51.462;6.698;2023-03-23T09:39:53;2.30;;;0.85;;
67861;SDS011;54665;51.462;6.698;2023-03-23T09:42:27;3.53;;;1.10;;
67861;SDS011;54665;51.462;6.698;2023-03-23T09:50:14;4.68;;;1.05;;
67861;SDS011;54665;51.462;6.698;2023-03-23T09:52:49;5.40;;;1.13;;
67861;SDS011;54665;51.462;6.698;2023-03-23T09:55:23;5.03;;;1.20;;
67861;SDS011;54665;51.462;6.698;2023-03-23T10:03:20;4.13;;;0.60;;
67861;SDS011;54665;51.462;6.698;2023-03-23T10:05:49;1.75;;;0.52;;
67861;SDS011;54665;51.462;6.698;2023-03-23T10:08:19;2.60;;;0.57;;
67861;SDS011;54665;51.462;6.698;2023-03-23T10:13:51;2.38;;;0.50;;
67861;SDS011;54665;51.462;6.698;2023-03-23T10:16:19;2.78;;;0.50;;
67861;SDS011;54665;51.462;6.698;2023-03-23T10:21:23;4.07;;;0.60;;
67861;SDS011;54665;51.462;6.698;2023-03-23T10:28:57;3.95;;;1.20;;
67861;SDS011;54665;51.462;6.698;2023-03-23T10:31:32;3.90;;;1.10;;
67861;SDS011;54665;51.462;6.698;2023-03-23T10:34:03;2.53;;;1.10;;
67861;SDS011;54665;51.462;6.698;2023-03-23T10:36:42;2.53;;;0.57;;
67861;SDS011;54665;51.462;6.698;2023-03-23T10:39:18;3.28;;;0.70;;
67861;SDS011;54665;51.462;6.698;2023-03-23T10:41:46;2.00;;;0.65;;
67861;SDS011;54665;51.462;6.698;2023-03-23T10:44:19;2.05;;;0.60;;
67861;SDS011;54665;51.462;6.698;2023-03-23T10:49:19;3.17;;;0.73;;
67861;SDS011;54665;51.462;6.698;2023-03-23T10:52:32;2.40;;;0.60;;
67861;SDS011;54665;51.462;6.698;2023-03-23T10:54:56;3.97;;;0.50;;
67861;SDS011;54665;51.462;6.698;2023-03-23T10:57:26;2.45;;;0.60;;
67861;SDS011;54665;51.462;6.698;2023-03-23T10:59:57;2.33;;;0.70;;
67861;SDS011;54665;51.462;6.698;2023-03-23T11:02:24;3.45;;;0.70;;
67861;SDS011;54665;51.462;6.698;2023-03-23T11:04:59;2.40;;;0.65;;
67861;SDS011;54665;51.462;6.698;2023-03-23T11:07:31;5.25;;;0.65;;
67861;SDS011;54665;51.462;6.698;2023-03-23T11:10:03;3.42;;;0.60;;
67861;SDS011;54665;51.462;6.698;2023-03-23T11:12:33;2.83;;;0.70;;
67861;SDS011;54665;51.462;6.698;2023-03-23T11:15:17;4.07;;;0.60;;
67861;SDS011;54665;51.462;6.698;2023-03-23T11:17:58;2.85;;;0.60;;
67861;SDS011;54665;51.462;6.698;2023-03-23T11:20:49;3.53;;;0.65;;
67861;SDS011;54665;51.462;6.698;2023-03-23T11:23:23;3.27;;;0.60;;
67861;SDS011;54665;51.462;6.698;2023-03-23T11:28:43;1.45;;;0.50;;
67861;SDS011;54665;51.462;6.698;2023-03-23T11:31:31;3.20;;;0.70;;
67861;SDS011;54665;51.462;6.698;2023-03-23T11:34:09;2.70;;;0.70;;
67861;SDS011;54665;51.462;6.698;2023-03-23T11:36:41;3.47;;;0.87;;
67861;SDS011;54665;51.462;6.698;2023-03-23T11:41:48;3.15;;;1.10;;
67861;SDS011;54665;51.462;6.698;2023-03-23T11:44:14;3.40;;;0.80;;
67861;SDS011;54665;51.462;6.698;2023-03-23T11:49:34;3.85;;;1.10;;
67861;SDS011;54665;51.462;6.698;2023-03-23T11:55:55;2.13;;;0.70;;
67861;SDS011;54665;51.462;6.698;2023-03-23T11:57:49;2.78;;;0.70;;
67861;SDS011;54665;51.462;6.698;2023-03-23T12:00:16;3.07;;;0.80;;
67861;SDS011;54665;51.462;6.698;2023-03-23T12:02:56;2.28;;;0.90;;
67861;SDS011;54665;51.462;6.698;2023-03-23T12:05:39;3.85;;;1.55;;
67861;SDS011;54665;51.462;6.698;2023-03-23T12:27:04;3.00;;;1.03;;
67861;SDS011;54665;51.462;6.698;2023-03-23T12:29:39;4.45;;;1.20;;
67861;SDS011;54665;51.462;6.698;2023-03-23T12:38:09;3.25;;;1.30;;
67861;SDS011;54665;51.462;6.698;2023-03-23T12:43:38;5.10;;;1.30;;
67861;SDS011;54665;51.462;6.698;2023-03-23T12:49:06;2.70;;;1.27;;
67861;SDS011;54665;51.462;6.698;2023-03-23T12:51:47;3.03;;;1.10;;
67861;SDS011;54665;51.462;6.698;2023-03-23T12:54:33;4.37;;;1.10;;
67861;SDS011;54665;51.462;6.698;2023-03-23T13:08:21;3.57;;;1.20;;
67861;SDS011;54665;51.462;6.698;2023-03-23T13:10:53;2.50;;;1.17;;
67861;SDS011;54665;51.462;6.698;2023-03-23T13:13:25;3.03;;;1.02;;
67861;SDS011;54665;51.462;6.698;2023-03-23T13:16:24;4.07;;;1.30;;
67861;SDS011;54665;51.462;6.698;2023-03-23T13:19:00;3.40;;;1.45;;
67861;SDS011;54665;51.462;6.698;2023-03-23T13:21:40;3.83;;;1.30;;
67861;SDS011;54665;51.462;6.698;2023-03-23T13:24:11;4.35;;;1.60;;
67861;SDS011;54665;51.462;6.698;2023-03-23T13:26:41;3.60;;;1.20;;
67861;SDS011;54665;51.462;6.698;2023-03-23T13:31:46;3.63;;;1.25;;
67861;SDS011;54665;51.462;6.698;2023-03-23T13:37:02;5.22;;;1.45;;
67861;SDS011;54665;51.462;6.698;2023-03-23T13:39:37;3.17;;;1.40;;
67861;SDS011;54665;51.462;6.698;2023-03-23T13:42:19;5.18;;;1.40;;
67861;SDS011;54665;51.462;6.698;2023-03-23T13:47:25;4.03;;;1.60;;
67861;SDS011;54665;51.462;6.698;2023-03-23T13:52:24;4.43;;;1.70;;
67861;SDS011;54665;51.462;6.698;2023-03-23T13:55:17;3.85;;;1.00;;
67861;SDS011;54665;51.462;6.698;2023-03-23T13:57:53;3.33;;;1.50;;
67861;SDS011;54665;51.462;6.698;2023-03-23T14:00:26;2.17;;;1.30;;
67861;SDS011;54665;51.462;6.698;2023-03-23T14:06:02;2.70;;;1.33;;
67861;SDS011;54665;51.462;6.698;2023-03-23T14:08:38;3.53;;;1.35;;
67861;SDS011;54665;51.462;6.698;2023-03-23T14:11:13;3.92;;;1.40;;
67861;SDS011;54665;51.462;6.698;2023-03-23T14:13:47;4.00;;;1.47;;
67861;SDS011;54665;51.462;6.698;2023-03-23T14:16:23;4.88;;;1.40;;
67861;SDS011;54665;51.462;6.698;2023-03-23T14:18:58;2.90;;;1.30;;
67861;SDS011;54665;51.462;6.698;2023-03-23T14:21:31;4.25;;;1.52;;
67861;SDS011;54665;51.462;6.698;2023-03-23T14:24:12;4.82;;;2.00;;
67861;SDS011;54665;51.462;6.698;2023-03-23T14:26:44;4.77;;;1.73;;
67861;SDS011;54665;51.462;6.698;2023-03-23T14:29:12;3.85;;;2.00;;
67861;SDS011;54665;51.462;6.698;2023-03-23T14:31:38;4.32;;;1.50;;
67861;SDS011;54665;51.462;6.698;2023-03-23T14:37:00;6.05;;;1.95;;
67861;SDS011;54665;51.462;6.698;2023-03-23T14:39:30;4.75;;;2.05;;
67861;SDS011;54665;51.462;6.698;2023-03-23T14:42:19;5.32;;;2.80;;
67861;SDS011;54665;51.462;6.698;2023-03-23T14:44:50;4.40;;;2.33;;
67861;SDS011;54665;51.462;6.698;2023-03-23T14:49:47;5.07;;;1.97;;
67861;SDS011;54665;51.462;6.698;2023-03-23T14:52:18;4.43;;;1.92;;
67861;SDS011;54665;51.462;6.698;2023-03-23T14:54:47;5.68;;;1.80;;
67861;SDS011;54665;51.462;6.698;2023-03-23T14:59:43;3.70;;;1.50;;
67861;SDS011;54665;51.462;6.698;2023-03-23T15:02:11;3.15;;;1.38;;
67861;SDS011;54665;51.462;6.698;2023-03-23T15:04:41;3.60;;;1.20;;
67861;SDS011;54665;51.462;6.698;2023-03-23T15:07:10;2.30;;;1.10;;
67861;SDS011;54665;51.462;6.698;2023-03-23T15:09:39;3.63;;;1.13;;
67861;SDS011;54665;51.462;6.698;2023-03-23T15:12:06;5.25;;;1.10;;
67861;SDS011;54665;51.462;6.698;2023-03-23T15:14:47;4.13;;;1.00;;
67861;SDS011;54665;51.462;6.698;2023-03-23T15:17:18;2.63;;;1.00;;
67861;SDS011;54665;51.462;6.698;2023-03-23T15:19:46;3.03;;;0.90;;
67861;SDS011;54665;51.462;6.698;2023-03-23T15:22:20;3.23;;;1.10;;
67861;SDS011;54665;51.462;6.698;2023-03-23T15:24:51;3.08;;;0.90;;
67861;SDS011;54665;51.462;6.698;2023-03-23T15:27:27;4.55;;;1.20;;
67861;SDS011;54665;51.462;6.698;2023-03-23T15:29:56;3.55;;;1.20;;
67861;SDS011;54665;51.462;6.698;2023-03-23T15:32:38;2.63;;;0.90;;
67861;SDS011;54665;51.462;6.698;2023-03-23T15:35:10;3.40;;;1.00;;
67861;SDS011;54665;51.462;6.698;2023-03-23T15:37:42;4.47;;;1.10;;
67861;SDS011;54665;51.462;6.698;2023-03-23T15:40:17;3.25;;;1.05;;
67861;SDS011;54665;51.462;6.698;2023-03-23T15:42:47;4.10;;;1.10;;
67861;SDS011;54665;51.462;6.698;2023-03-23T15:52:50;3.70;;;1.00;;
67861;SDS011;54665;51.462;6.698;2023-03-23T15:55:24;2.65;;;1.08;;
67861;SDS011;54665;51.462;6.698;2023-03-23T15:57:52;3.88;;;1.30;;
67861;SDS011;54665;51.462;6.698;2023-03-23T16:00:20;4.53;;;1.47;;
67861;SDS011;54665;51.462;6.698;2023-03-23T16:02:47;3.78;;;1.30;;
67861;SDS011;54665;51.462;6.698;2023-03-23T16:05:16;4.63;;;1.52;;
67861;SDS011;54665;51.462;6.698;2023-03-23T16:07:42;4.93;;;1.43;;
67861;SDS011;54665;51.462;6.698;2023-03-23T16:10:10;4.80;;;1.30;;
67861;SDS011;54665;51.462;6.698;2023-03-23T16:12:40;4.47;;;1.30;;
67861;SDS011;54665;51.462;6.698;2023-03-23T16:15:05;4.83;;;1.50;;
67861;SDS011;54665;51.462;6.698;2023-03-23T16:17:33;4.00;;;1.70;;
67861;SDS011;54665;51.462;6.698;2023-03-23T16:19:59;3.50;;;1.30;;
67861;SDS011;54665;51.462;6.698;2023-03-23T16:22:24;6.23;;;1.60;;
67861;SDS011;54665;51.462;6.698;2023-03-23T16:24:50;6.00;;;1.45;;
67861;SDS011;54665;51.462;6.698;2023-03-23T16:27:15;5.30;;;1.60;;
67861;SDS011;54665;51.462;6.698;2023-03-23T16:29:41;3.50;;;1.70;;
67861;SDS011;54665;51.462;6.698;2023-03-23T16:32:06;3.70;;;1.50;;
67861;SDS011;54665;51.462;6.698;2023-03-23T16:34:32;4.47;;;1.67;;
67861;SDS011;54665;51.462;6.698;2023-03-23T16:37:00;5.60;;;1.70;;
67861;SDS011;54665;51.462;6.698;2023-03-23T16:39:26;5.63;;;1.50;;
67861;SDS011;54665;51.462;6.698;2023-03-23T16:41:51;5.00;;;1.60;;
67861;SDS011;54665;51.462;6.698;2023-03-23T16:44:17;6.83;;;1.70;;
67861;SDS011;54665;51.462;6.698;2023-03-23T16:46:42;5.57;;;1.80;;
67861;SDS011;54665;51.462;6.698;2023-03-23T16:49:08;5.00;;;1.87;;
67861;SDS011;54665;51.462;6.698;2023-03-23T16:51:33;5.87;;;1.80;;
67861;SDS011;54665;51.462;6.698;2023-03-23T16:53:59;6.10;;;2.05;;
67861;SDS011;54665;51.462;6.698;2023-03-23T16:56:24;6.63;;;2.03;;
67861;SDS011;54665;51.462;6.698;2023-03-23T16:58:50;5.87;;;2.20;;
67861;SDS011;54665;51.462;6.698;2023-03-23T17:01:15;6.00;;;2.23;;
67861;SDS011;54665;51.462;6.698;2023-03-23T17:03:41;8.43;;;2.10;;
67861;SDS011;54665;51.462;6.698;2023-03-23T17:06:06;5.57;;;2.50;;
67861;SDS011;54665;51.462;6.698;2023-03-23T17:08:32;6.30;;;2.30;;
67861;SDS011;54665;51.462;6.698;2023-03-23T17:10:58;6.83;;;2.57;;
67861;SDS011;54665;51.462;6.698;2023-03-23T17:13:23;8.05;;;2.78;;
67861;SDS011;54665;51.462;6.698;2023-03-23T17:15:52;14.03;;;3.00;;
67861;SDS011;54665;51.462;6.698;2023-03-23T17:18:18;10.38;;;3.55;;
67861;SDS011;54665;51.462;6.698;2023-03-23T17:20:44;11.03;;;3.50;;
67861;SDS011;54665;51.462;6.698;2023-03-23T17:23:09;10.63;;;3.60;;
67861;SDS011;54665;51.462;6.698;2023-03-23T17:25:35;7.43;;;2.90;;